Time;durP1;ratioP1;P1;durP2;ratioP2;P2;SDS_P1;SDS_P2;PMS_P1;PMS_P2;Temp;Humidity;BMP_temperature;BMP_pressure;BME280_temperature;BME280_humidity;BME280_pressure;Samples;Min_cycle;Max_cycle;Signal;HPM_P1;HPM_P2
2022/06/17 00:00:55;;;;;;;6.53;3.40;;;;;;;20.13;59.94;99362.50;5086732;28;20048;-69
2022/06/17 00:03:25;;;;;;;5.05;3.35;;;;;;;20.10;59.26;99357.41;5086716;28;20052;-70
2022/06/17 00:05:55;;;;;;;9.65;3.72;;;;;;;20.08;59.75;99359.41;5086438;28;20056;-70
2022/06/17 00:08:28;;;;;;;3.97;3.40;;;;;;;20.15;59.05;99352.44;5086848;28;20048;-69
2022/06/17 00:10:55;;;;;;;4.03;3.10;;;;;;;20.07;58.74;99349.63;5086887;28;20056;-69
2022/06/17 00:13:24;;;;;;;3.75;3.35;;;;;;;19.98;59.36;99361.25;5086781;28;20350;-70
2022/06/17 00:15:53;;;;;;;5.22;4.50;;;;;;;20.03;59.03;99350.06;5086337;28;20101;-70
2022/06/17 00:18:21;;;;;;;5.10;4.20;;;;;;;20.00;58.84;99351.19;5086677;28;20370;-70
2022/06/17 00:20:50;;;;;;;4.25;3.35;;;;;;;20.00;59.12;99353.91;5086603;28;20056;-69
2022/06/17 00:23:22;;;;;;;5.97;2.97;;;;;;;20.05;58.63;99353.47;5086468;28;20259;-70
2022/06/17 00:25:50;;;;;;;5.65;3.28;;;;;;;19.93;59.11;99355.47;5086523;28;20102;-70
2022/06/17 00:28:19;;;;;;;4.75;3.47;;;;;;;19.95;58.91;99361.56;5086450;28;20193;-70
2022/06/17 00:30:47;;;;;;;4.45;3.38;;;;;;;19.91;58.97;99354.75;5086310;28;20056;-70
2022/06/17 00:33:16;;;;;;;4.30;2.88;;;;;;;19.95;58.63;99353.47;5086355;28;20236;-70
2022/06/17 00:35:45;;;;;;;6.78;3.47;;;;;;;19.93;59.42;99352.78;5086019;28;20056;-70
2022/06/17 00:38:15;;;;;;;4.70;2.90;;;;;;;19.94;58.76;99354.47;5086300;28;20056;-69
2022/06/17 00:40:44;;;;;;;5.13;3.03;;;;;;;19.89;58.84;99356.75;5086258;28;20308;-70
2022/06/17 00:43:21;;;;;;;3.97;3.30;;;;;;;19.90;59.32;99360.28;5086086;28;20052;-70
2022/06/17 00:45:53;;;;;;;5.53;3.22;;;;;;;19.86;59.10;99357.03;5085867;28;20056;-70
2022/06/17 00:48:24;;;;;;;4.65;3.20;;;;;;;19.85;59.20;99356.19;5086150;28;20057;-69
2022/06/17 00:50:56;;;;;;;3.80;3.40;;;;;;;19.75;59.70;99346.41;5085767;28;20105;-69
2022/06/17 00:53:26;;;;;;;4.68;3.17;;;;;;;19.69;59.51;99333.53;5085772;28;20053;-70
2022/06/17 00:56:00;;;;;;;4.32;3.47;;;;;;;19.83;58.94;99351.94;5086026;28;20247;-69
2022/06/17 00:58:32;;;;;;;6.35;3.05;;;;;;;19.78;59.26;99359.56;5085969;28;20098;-70
2022/06/17 01:01:02;;;;;;;4.95;3.22;;;;;;;19.81;58.95;99362.00;5085010;28;20320;-70
2022/06/17 01:03:33;;;;;;;4.68;3.58;;;;;;;19.72;59.08;99374.41;5085746;28;20048;-69
2022/06/17 01:06:05;;;;;;;6.93;3.35;;;;;;;19.69;59.31;99373.84;5085472;28;20060;-69
2022/06/17 01:11:26;;;;;;;5.22;3.00;;;;;;;19.62;59.75;99380.78;5085749;28;20063;-70
2022/06/17 01:13:54;;;;;;;5.43;3.40;;;;;;;19.64;59.34;99376.97;5085774;28;20308;-70
2022/06/17 01:16:26;;;;;;;5.28;4.05;;;;;;;19.68;59.26;99374.84;5085704;28;20106;-70
2022/06/17 01:18:55;;;;;;;4.53;3.25;;;;;;;19.60;59.92;99380.94;5085701;28;20113;-69
2022/06/17 01:21:29;;;;;;;5.00;3.45;;;;;;;19.67;59.58;99384.75;5085550;28;20110;-69
2022/06/17 01:23:58;;;;;;;5.85;3.47;;;;;;;19.69;59.34;99376.53;5085633;28;20308;-70
2022/06/17 01:26:26;;;;;;;5.30;3.67;;;;;;;19.64;59.88;99381.50;5085858;28;20193;-69
2022/06/17 01:28:53;;;;;;;5.28;3.53;;;;;;;19.59;60.19;99387.28;5085569;28;20056;-70
2022/06/17 01:31:21;;;;;;;4.95;4.10;;;;;;;19.55;59.92;99381.34;5085588;28;20121;-70
2022/06/17 01:33:48;;;;;;;4.82;3.88;;;;;;;19.43;60.58;99389.69;5085293;28;20079;-70
2022/06/17 01:36:19;;;;;;;6.43;4.15;;;;;;;19.36;60.30;99346.38;5085235;28;20052;-70
2022/06/17 01:38:50;;;;;;;4.78;3.97;;;;;;;19.48;60.86;99385.59;5085357;28;20052;-69
2022/06/17 01:41:22;;;;;;;6.57;4.18;;;;;;;19.40;61.27;99392.66;5085409;28;20117;-70
2022/06/17 01:43:53;;;;;;;4.40;3.72;;;;;;;19.27;60.99;99370.53;5085090;28;20060;-69
2022/06/17 01:46:24;;;;;;;7.30;4.25;;;;;;;19.41;60.46;99395.19;5085271;28;20118;-69
2022/06/17 01:48:55;;;;;;;5.53;4.10;;;;;;;19.37;61.00;99396.44;5085118;28;20255;-69
2022/06/17 01:51:25;;;;;;;6.35;4.07;;;;;;;19.15;61.56;99375.19;5085389;28;20045;-69
2022/06/17 01:53:56;;;;;;;5.10;3.72;;;;;;;19.34;61.01;99391.34;5085369;28;20110;-69
2022/06/17 01:56:30;;;;;;;4.93;3.50;;;;;;;19.30;61.01;99389.06;5085347;28;20114;-69
2022/06/17 01:59:01;;;;;;;6.38;4.10;;;;;;;19.23;61.61;99396.84;5085323;28;20048;-70
2022/06/17 02:01:32;;;;;;;5.65;3.38;;;;;;;19.34;60.95;99396.72;5085200;28;20376;-70
2022/06/17 02:04:06;;;;;;;4.25;3.60;;;;;;;19.31;61.38;99404.22;5084910;28;20052;-70
2022/06/17 02:06:40;;;;;;;4.22;3.65;;;;;;;19.33;61.12;99400.41;5084828;28;20060;-69
2022/06/17 02:09:08;;;;;;;6.07;3.95;;;;;;;19.33;60.77;99413.84;5084955;28;20102;-69
2022/06/17 02:11:36;;;;;;;5.03;3.75;;;;;;;19.44;60.47;99415.56;5085417;28;20246;-70
2022/06/17 02:14:06;;;;;;;4.88;3.83;;;;;;;19.30;61.30;99419.47;5089124;28;20110;-69
2022/06/17 02:16:36;;;;;;;4.63;3.60;;;;;;;19.40;60.90;99412.31;5088751;28;20056;-69
2022/06/17 02:19:04;;;;;;;5.47;3.92;;;;;;;19.43;60.82;99408.50;5088939;28;20125;-69
2022/06/17 02:21:36;;;;;;;5.05;3.65;;;;;;;19.41;61.08;99405.09;5088575;28;20121;-69
2022/06/17 02:24:04;;;;;;;4.55;3.65;;;;;;;19.38;60.45;99405.34;5088808;28;20106;-70
2022/06/17 02:26:34;;;;;;;5.75;3.63;;;;;;;19.33;60.25;99402.22;5088474;28;20048;-69
2022/06/17 02:29:07;;;;;;;4.18;3.78;;;;;;;19.36;60.25;99405.50;5088674;28;20048;-69
2022/06/17 02:31:36;;;;;;;5.07;3.90;;;;;;;19.37;60.45;99401.81;5088703;28;20105;-69
2022/06/17 02:34:05;;;;;;;4.57;4.10;;;;;;;19.37;60.38;99404.50;5088316;28;20052;-70
2022/06/17 02:36:34;;;;;;;4.70;3.67;;;;;;;19.37;60.30;99395.59;5088579;28;20056;-70
2022/06/17 02:39:02;;;;;;;3.88;3.47;;;;;;;19.36;60.18;99400.13;5088610;28;20064;-69
2022/06/17 02:41:30;;;;;;;7.30;4.32;;;;;;;19.39;59.96;99405.25;5088296;28;20117;-69
2022/06/17 02:44:03;;;;;;;4.75;4.07;;;;;;;19.37;60.05;99407.19;5088377;28;20102;-69
2022/06/17 02:46:36;;;;;;;4.63;4.13;;;;;;;19.33;60.09;99404.91;5088147;28;20048;-70
2022/06/17 02:49:07;;;;;;;6.18;4.00;;;;;;;19.40;59.77;99414.16;5088733;28;20358;-70
2022/06/17 02:51:37;;;;;;;5.20;4.07;;;;;;;19.34;60.36;99410.16;5088348;28;20117;-70
2022/06/17 02:54:06;;;;;;;5.35;4.03;;;;;;;19.37;59.87;99426.00;5088069;28;20060;-70
2022/06/17 02:56:37;;;;;;;5.85;4.43;;;;;;;19.37;60.26;99426.00;5088297;28;20110;-69
2022/06/17 02:59:11;;;;;;;5.68;4.07;;;;;;;19.30;60.18;99416.78;5088207;28;20056;-69
2022/06/17 03:01:42;;;;;;;6.10;3.80;;;;;;;19.31;60.08;99414.97;5087911;28;20052;-70
2022/06/17 03:04:14;;;;;;;5.78;4.18;;;;;;;19.32;60.12;99413.97;5088053;28;20355;-70
2022/06/17 03:06:45;;;;;;;5.00;3.85;;;;;;;19.37;59.53;99412.56;5088131;28;20110;-69
2022/06/17 03:09:20;;;;;;;5.72;4.07;;;;;;;19.33;59.71;99426.41;5087978;28;20070;-69
2022/06/17 03:11:51;;;;;;;5.05;3.90;;;;;;;19.32;59.92;99432.78;5088025;28;20052;-70
2022/06/17 03:14:18;;;;;;;5.90;3.88;;;;;;;19.30;60.03;99429.38;5088494;28;20052;-69
2022/06/17 03:16:52;;;;;;;5.78;3.97;;;;;;;19.38;59.59;99425.00;5087893;28;20056;-70
2022/06/17 03:19:19;;;;;;;4.90;3.58;;;;;;;19.35;59.74;99436.03;5087923;28;20129;-69
2022/06/17 03:21:47;;;;;;;5.28;4.13;;;;;;;19.32;59.75;99436.31;5087800;28;20114;-70
2022/06/17 03:24:21;;;;;;;6.43;4.15;;;;;;;19.34;59.57;99434.34;5086546;28;20060;-69
2022/06/17 03:26:53;;;;;;;6.07;4.55;;;;;;;19.34;58.90;99439.72;5087740;28;20097;-70
2022/06/17 03:29:24;;;;;;;4.45;3.67;;;;;;;19.34;59.19;99446.94;5087410;28;20365;-69
2022/06/17 03:31:59;;;;;;;5.78;3.97;;;;;;;19.36;59.04;99453.88;5087584;28;20094;-70
2022/06/17 03:34:32;;;;;;;4.53;3.80;;;;;;;19.38;59.02;99454.56;5087594;28;20052;-69
2022/06/17 03:37:06;;;;;;;5.00;4.10;;;;;;;19.37;59.11;99450.19;5087496;28;20048;-69
2022/06/17 03:39:37;;;;;;;6.03;4.07;;;;;;;19.29;59.14;99454.56;5087193;28;20106;-69
2022/06/17 03:42:12;;;;;;;4.25;3.60;;;;;;;19.27;58.69;99456.53;5087463;28;20049;-69
2022/06/17 03:44:44;;;;;;;9.15;4.20;;;;;;;19.26;58.82;99466.41;5087338;28;20094;-70
2022/06/17 03:47:19;;;;;;;11.07;4.90;;;;;;;19.26;58.88;99469.09;5087058;28;20052;-70
2022/06/17 03:49:53;;;;;;;6.40;4.07;;;;;;;19.21;58.75;99465.97;5087181;28;20300;-70
2022/06/17 03:52:25;;;;;;;5.20;4.05;;;;;;;19.18;58.63;99466.25;5087250;28;20064;-70
2022/06/17 03:54:53;;;;;;;5.50;3.90;;;;;;;19.24;58.61;99471.94;5087077;28;20049;-69
2022/06/17 03:57:20;;;;;;;4.90;4.38;;;;;;;19.19;58.56;99478.69;5087046;28;20094;-70
2022/06/17 03:59:50;;;;;;;6.15;4.85;;;;;;;19.22;58.58;99481.13;5087050;28;20056;-70
2022/06/17 04:02:19;;;;;;;5.10;3.67;;;;;;;18.98;58.69;99465.34;5087004;28;20052;-69
2022/06/17 04:04:52;;;;;;;6.28;4.72;;;;;;;19.22;58.33;99490.03;5086434;28;20056;-69
2022/06/17 04:07:19;;;;;;;5.57;3.70;;;;;;;19.23;58.69;99482.81;5086704;28;20056;-70
2022/06/17 04:09:48;;;;;;;5.05;4.53;;;;;;;19.22;58.35;99495.41;5086569;28;20048;-70
2022/06/17 04:12:24;;;;;;;7.32;4.13;;;;;;;19.23;58.69;99504.31;5086830;28;20056;-70
2022/06/17 04:14:58;;;;;;;6.47;4.07;;;;;;;19.27;58.32;99503.06;5086747;28;20245;-70
2022/06/17 04:17:32;;;;;;;5.20;4.18;;;;;;;19.28;58.31;99517.34;5086395;28;20267;-69
2022/06/17 04:20:18;;;;;;;4.78;4.28;;;;;;;19.24;58.71;99519.44;5086339;28;20056;-70
2022/06/17 04:22:47;;;;;;;6.45;4.30;;;;;;;19.30;58.61;99518.91;5086590;28;20056;-69
2022/06/17 04:25:19;;;;;;;5.38;3.72;;;;;;;19.28;58.33;99520.88;5086132;28;20094;-69
2022/06/17 04:28:01;;;;;;;6.00;3.97;;;;;;;19.32;58.38;99521.44;5086559;28;20122;-69
2022/06/17 04:30:32;;;;;;;4.40;3.85;;;;;;;19.34;58.18;99522.16;5086429;28;20048;-70
2022/06/17 04:33:03;;;;;;;5.50;4.40;;;;;;;19.36;58.18;99521.03;5086162;28;20057;-70
2022/06/17 04:35:31;;;;;;;6.35;4.93;;;;;;;19.37;58.26;99527.28;5086221;28;20109;-70
2022/06/17 04:37:58;;;;;;;4.10;3.70;;;;;;;19.37;58.10;99529.97;5085966;28;20056;-70
2022/06/17 04:40:35;;;;;;;5.60;4.20;;;;;;;19.41;57.78;99520.66;5086263;28;20056;-69
2022/06/17 04:43:06;;;;;;;5.85;4.20;;;;;;;19.32;57.92;99508.03;5085910;28;20259;-70
2022/06/17 04:45:33;;;;;;;6.07;4.47;;;;;;;19.37;57.93;99532.66;5086126;28;20056;-69
2022/06/17 04:48:02;;;;;;;4.88;4.13;;;;;;;19.33;57.80;99542.81;5086061;28;20106;-69
2022/06/17 04:50:31;;;;;;;6.28;4.38;;;;;;;19.36;57.73;99550.59;5085756;28;20101;-70
2022/06/17 04:52:58;;;;;;;5.32;4.20;;;;;;;19.35;57.67;99543.53;5085690;28;20052;-69
2022/06/17 04:55:28;;;;;;;7.88;4.85;;;;;;;19.35;57.91;99548.91;5085962;28;20048;-69
2022/06/17 04:57:56;;;;;;;5.30;4.80;;;;;;;19.44;57.82;99548.13;5085679;28;20063;-70
2022/06/17 05:00:26;;;;;;;6.32;4.68;;;;;;;19.38;57.97;99545.94;5085843;28;20267;-69
2022/06/17 05:02:54;;;;;;;7.25;4.82;;;;;;;19.45;57.70;99551.66;5085896;28;20048;-69
2022/06/17 05:05:28;;;;;;;5.63;5.07;;;;;;;19.45;57.59;99560.56;5085541;28;20045;-70
2022/06/17 05:07:57;;;;;;;7.70;6.35;;;;;;;19.43;57.69;99559.00;5085566;28;20106;-70
2022/06/17 05:10:27;;;;;;;7.22;5.82;;;;;;;19.46;57.42;99548.84;5085760;28;20056;-70
2022/06/17 05:13:00;;;;;;;6.65;4.80;;;;;;;19.52;56.76;99566.25;5085648;28;20259;-70
2022/06/17 05:15:28;;;;;;;7.38;4.57;;;;;;;19.48;57.34;99559.44;5085784;28;20052;-70
2022/06/17 05:17:56;;;;;;;6.35;4.88;;;;;;;19.63;57.25;99568.00;5085600;28;20208;-70
2022/06/17 05:20:26;;;;;;;5.25;4.75;;;;;;;19.67;57.03;99572.09;5085606;28;20056;-70
2022/06/17 05:22:57;;;;;;;5.45;4.70;;;;;;;19.66;56.83;99571.25;5085682;28;20374;-70
2022/06/17 05:25:27;;;;;;;5.55;5.05;;;;;;;19.47;56.78;99550.53;5085537;28;20345;-69
2022/06/17 05:27:55;;;;;;;6.35;4.90;;;;;;;19.75;56.74;99577.66;5085460;28;20114;-69
2022/06/17 05:30:23;;;;;;;7.18;4.57;;;;;;;19.76;56.97;99579.34;5085475;28;20056;-69
2022/06/17 05:32:52;;;;;;;7.93;4.80;;;;;;;19.78;56.73;99590.81;5085345;28;20056;-70
2022/06/17 05:35:21;;;;;;;7.05;4.63;;;;;;;19.77;56.58;99597.19;5085130;28;20098;-69
2022/06/17 05:37:50;;;;;;;5.95;4.85;;;;;;;19.68;56.82;99568.44;5085177;28;20056;-70
2022/06/17 05:40:18;;;;;;;6.20;4.55;;;;;;;19.24;56.53;99522.97;5084920;28;20098;-70
2022/06/17 05:42:47;;;;;;;7.10;4.55;;;;;;;19.82;56.47;99595.81;5085146;28;20052;-69
2022/06/17 05:45:17;;;;;;;6.72;4.55;;;;;;;19.89;56.32;99596.13;5085340;28;20342;-70
2022/06/17 05:47:44;;;;;;;8.63;4.65;;;;;;;19.84;56.50;99603.75;5086983;28;20362;-70
2022/06/17 05:50:12;;;;;;;5.20;4.50;;;;;;;19.89;56.65;99596.13;5089536;28;20267;-69
2022/06/17 05:52:52;;;;;;;6.82;4.60;;;;;;;19.88;56.12;99599.78;5089205;28;20082;-70
2022/06/17 05:55:19;;;;;;;5.68;4.22;;;;;;;19.90;56.68;99603.19;5089164;28;20090;-69
2022/06/17 05:57:47;;;;;;;5.13;4.63;;;;;;;19.93;56.91;99608.31;5089354;28;20064;-69
2022/06/17 06:00:15;;;;;;;5.78;4.82;;;;;;;19.94;56.78;99618.06;5089405;28;20060;-70
2022/06/17 06:02:43;;;;;;;5.32;4.68;;;;;;;19.94;56.52;99618.06;5089317;28;20118;-70
2022/06/17 06:05:15;;;;;;;5.32;4.47;;;;;;;20.03;56.52;99619.94;5088867;28;20056;-70
2022/06/17 06:07:42;;;;;;;5.32;4.40;;;;;;;20.06;56.83;99616.97;5088860;28;20036;-70
2022/06/17 06:10:12;;;;;;;5.57;4.28;;;;;;;20.12;56.28;99616.41;5089140;28;20052;-69
2022/06/17 06:12:57;;;;;;;6.07;4.95;;;;;;;20.08;56.90;99628.44;5088944;28;20304;-69
2022/06/17 06:15:27;;;;;;;6.00;4.47;;;;;;;20.11;56.84;99633.53;5088625;28;20094;-70
2022/06/17 06:17:54;;;;;;;4.78;4.30;;;;;;;20.16;56.93;99625.06;5088900;28;20098;-70
2022/06/17 06:20:22;;;;;;;5.63;4.28;;;;;;;19.75;56.94;99559.66;5088609;28;20086;-70
2022/06/17 06:22:50;;;;;;;6.70;5.38;;;;;;;20.19;56.77;99631.00;5088532;28;20231;-69
2022/06/17 06:25:20;;;;;;;6.90;4.68;;;;;;;20.29;56.83;99635.59;5088631;28;20106;-70
2022/06/17 06:27:47;;;;;;;7.07;5.07;;;;;;;20.31;56.64;99645.22;5088201;28;20057;-69
2022/06/17 06:30:21;;;;;;;5.78;5.03;;;;;;;20.35;56.84;99643.97;5088393;28;20071;-69
2022/06/17 06:32:53;;;;;;;7.00;5.10;;;;;;;20.34;56.60;99652.16;5088733;28;20243;-70
2022/06/17 06:35:23;;;;;;;9.40;4.75;;;;;;;20.32;56.70;99651.47;5088387;28;20098;-69
2022/06/17 06:37:51;;;;;;;6.13;4.05;;;;;;;20.38;56.63;99640.13;5088515;28;20266;-70
2022/06/17 06:40:20;;;;;;;8.05;4.90;;;;;;;20.45;55.92;99650.19;5088210;28;20056;-71
2022/06/17 06:42:49;;;;;;;4.85;4.35;;;;;;;20.52;55.99;99653.19;5088515;28;20064;-71
2022/06/17 06:45:19;;;;;;;4.88;4.35;;;;;;;20.57;56.29;99650.06;5088253;28;20185;-70
2022/06/17 06:47:49;;;;;;;5.20;4.28;;;;;;;20.59;56.08;99648.09;5088450;28;20062;-70
2022/06/17 06:50:18;;;;;;;8.35;4.93;;;;;;;20.66;55.78;99655.47;5088339;28;20308;-71
2022/06/17 06:52:45;;;;;;;6.00;4.57;;;;;;;20.70;56.03;99656.88;5088415;28;20304;-70
2022/06/17 06:55:14;;;;;;;5.28;4.30;;;;;;;20.76;55.80;99660.84;5088295;28;20053;-71
2022/06/17 06:57:51;;;;;;;6.30;4.70;;;;;;;20.88;55.18;99657.00;5088263;28;20064;-70
2022/06/17 07:00:20;;;;;;;5.28;3.38;;;;;;;20.91;55.07;99662.09;5088203;28;20057;-70
2022/06/17 07:02:47;;;;;;;5.18;3.60;;;;;;;21.00;54.98;99652.31;5088213;28;20056;-71
2022/06/17 07:05:14;;;;;;;5.35;3.75;;;;;;;21.08;54.37;99649.78;5087404;28;20181;-69
2022/06/17 07:07:43;;;;;;;4.28;3.85;;;;;;;21.17;54.05;99648.91;5087382;28;20113;-70
2022/06/17 07:10:14;;;;;;;5.72;4.72;;;;;;;21.27;54.08;99654.28;5087768;28;20045;-70
2022/06/17 07:12:41;;;;;;;5.63;3.80;;;;;;;21.34;54.26;99658.09;5087954;28;20106;-71
2022/06/17 07:15:12;;;;;;;6.00;4.13;;;;;;;21.46;53.55;99643.44;5087558;28;20060;-71
2022/06/17 07:17:39;;;;;;;4.70;4.18;;;;;;;21.54;53.35;99666.97;5087951;28;20057;-69
2022/06/17 07:20:08;;;;;;;4.65;4.13;;;;;;;21.58;53.45;99657.59;5087612;28;20052;-68
2022/06/17 07:22:38;;;;;;;6.40;4.28;;;;;;;21.55;53.34;99661.44;5087597;28;20056;-68
2022/06/17 07:25:06;;;;;;;7.03;4.40;;;;;;;21.58;53.16;99657.59;5087047;28;20266;-68
2022/06/17 07:27:33;;;;;;;5.03;4.15;;;;;;;21.61;53.50;99660.00;5087452;28;20064;-68
2022/06/17 07:30:00;;;;;;;6.20;4.45;;;;;;;21.63;53.30;99656.16;5087599;28;20304;-69
2022/06/17 07:32:28;;;;;;;5.00;4.43;;;;;;;21.72;53.46;99663.38;5087339;28;20107;-68
2022/06/17 07:34:55;;;;;;;4.32;3.92;;;;;;;21.68;53.18;99648.47;5087485;28;20246;-69
2022/06/17 07:40:08;;;;;;;5.70;4.70;;;;;;;22.14;52.28;99671.00;5087233;28;20086;-68
2022/06/17 07:42:38;;;;;;;6.75;4.60;;;;;;;22.37;52.03;99668.72;5086896;28;20181;-69
2022/06/17 07:45:09;;;;;;;9.63;4.30;;;;;;;22.59;51.00;99679.16;5087249;28;20077;-68
2022/06/17 07:47:39;;;;;;;7.03;4.65;;;;;;;22.80;50.54;99683.41;5086975;28;20110;-68
2022/06/17 07:50:09;;;;;;;7.22;5.47;;;;;;;23.02;50.28;99681.06;5087158;28;20102;-69
2022/06/17 07:52:36;;;;;;;8.15;4.90;;;;;;;23.24;50.22;99674.31;5087137;28;20113;-69
2022/06/17 07:55:04;;;;;;;5.70;4.72;;;;;;;23.45;50.35;99676.69;5086912;28;20060;-69
2022/06/17 07:57:32;;;;;;;6.50;4.97;;;;;;;23.56;49.30;99679.13;5087027;28;20056;-69
2022/06/17 07:59:59;;;;;;;6.70;4.55;;;;;;;23.71;49.42;99675.84;5086977;28;20126;-69
2022/06/17 08:02:27;;;;;;;7.05;5.95;;;;;;;23.86;48.93;99675.06;5086968;28;20056;-69
2022/06/17 08:04:55;;;;;;;5.88;4.90;;;;;;;23.99;48.11;99667.38;5086503;28;20060;-69
2022/06/17 08:07:22;;;;;;;6.30;4.70;;;;;;;23.96;47.83;99673.09;5086958;28;20056;-69
2022/06/17 08:09:50;;;;;;;5.63;4.00;;;;;;;24.15;48.33;99682.00;5086332;28;20075;-69
2022/06/17 08:12:17;;;;;;;6.22;5.03;;;;;;;24.39;48.26;99676.66;5086714;28;20063;-68
2022/06/17 08:14:46;;;;;;;6.35;5.40;;;;;;;24.58;47.75;99675.50;5086818;28;20224;-69
2022/06/17 08:17:15;;;;;;;9.73;5.40;;;;;;;24.39;47.05;99678.50;5086410;28;20063;-69
2022/06/17 08:19:43;;;;;;;6.95;5.20;;;;;;;24.50;47.49;99680.91;5086564;28;20059;-69
2022/06/17 08:22:12;;;;;;;6.68;4.47;;;;;;;24.51;47.68;99683.47;5086485;28;20049;-69
2022/06/17 08:24:39;;;;;;;6.10;4.43;;;;;;;23.87;47.47;99586.59;5086543;28;20063;-69
2022/06/17 08:27:07;;;;;;;4.88;3.72;;;;;;;24.49;46.87;99682.78;5086099;28;20055;-70
2022/06/17 08:29:34;;;;;;;5.22;4.68;;;;;;;24.69;47.46;99677.09;5086555;28;20056;-70
2022/06/17 08:34:43;;;;;;;5.72;4.50;;;;;;;25.01;47.37;99666.31;5085335;28;20044;-69
2022/06/17 08:37:14;;;;;;;6.45;4.18;;;;;;;25.24;46.88;99672.72;5086254;28;20318;-70
2022/06/17 08:39:43;;;;;;;5.10;4.10;;;;;;;25.44;45.57;99677.81;5086293;28;20048;-70
2022/06/17 08:42:21;;;;;;;7.28;4.07;;;;;;;25.58;44.12;99674.41;5086330;28;20059;-69
2022/06/17 08:44:57;;;;;;;7.60;4.38;;;;;;;25.70;42.95;99669.44;5086074;28;20056;-70
2022/06/17 08:47:41;;;;;;;8.77;5.18;;;;;;;25.81;42.97;99664.50;5085756;28;20220;-70
2022/06/17 08:50:29;;;;;;;5.07;4.20;;;;;;;25.74;42.00;99660.78;5085548;28;20349;-70
2022/06/17 08:53:44;;;;;;;6.90;5.55;;;;;;;25.83;41.31;99667.88;5085793;28;20177;-69
2022/06/17 08:56:22;;;;;;;5.82;4.13;;;;;;;25.98;42.92;99672.63;5024161;28;20073;-70
2022/06/17 08:58:59;;;;;;;5.90;4.72;;;;;;;26.04;42.40;99685.50;5024457;28;20061;-70
2022/06/17 09:01:34;;;;;;;4.75;3.40;;;;;;;26.21;42.19;99677.09;5059998;28;20067;-70
2022/06/17 09:04:18;;;;;;;4.88;4.38;;;;;;;26.35;41.57;99686.34;5085804;28;20350;-70
2022/06/17 09:07:05;;;;;;;4.05;3.17;;;;;;;26.29;40.45;99681.63;5085696;28;20052;-69
2022/06/17 09:09:48;;;;;;;5.28;3.95;;;;;;;26.05;40.21;99688.03;5085406;28;20056;-70
2022/06/17 09:12:27;;;;;;;5.82;4.05;;;;;;;26.22;40.36;99680.66;5085342;28;20056;-70
2022/06/17 09:15:06;;;;;;;5.43;4.15;;;;;;;26.32;40.64;99688.59;5085344;28;20063;-70
2022/06/17 09:17:42;;;;;;;6.80;4.07;;;;;;;26.32;41.57;99686.72;5085605;28;20056;-69
2022/06/17 09:20:13;;;;;;;6.15;4.65;;;;;;;26.29;41.89;99643.59;5085494;28;20060;-70
2022/06/17 09:22:46;;;;;;;9.00;4.85;;;;;;;25.97;40.28;99682.63;5084645;28;20052;-70
2022/06/17 09:25:20;;;;;;;4.82;3.75;;;;;;;25.99;41.69;99685.16;5085235;28;20216;-69
2022/06/17 09:27:53;;;;;;;5.50;3.65;;;;;;;26.26;41.32;99684.72;5085314;28;20056;-70
2022/06/17 09:30:38;;;;;;;8.77;4.37;;;;;;;26.48;41.02;99693.94;5085368;28;20052;-70
2022/06/17 09:33:12;;;;;;;7.40;4.35;;;;;;;26.59;39.75;99693.53;5084847;28;20056;-70
2022/06/17 09:35:42;;;;;;;;;;;;;;;26.34;39.97;99703.69;5085624;28;20220;-70
2022/06/17 09:38:13;;;;;;;5.32;3.83;;;;;;;26.46;41.64;99701.41;5085349;28;20164;-70
2022/06/17 09:40:44;;;;;;;5.22;3.70;;;;;;;26.39;41.68;99697.72;5085338;28;20063;-70
2022/06/17 09:43:17;;;;;;;9.52;4.30;;;;;;;26.45;40.41;99697.84;5085249;28;20320;-70
2022/06/17 09:45:50;;;;;;;9.80;4.45;;;;;;;26.46;39.45;99694.13;5085256;28;20048;-70
2022/06/17 09:48:27;;;;;;;5.72;4.32;;;;;;;26.49;39.93;99703.78;5085138;28;20059;-70
2022/06/17 09:50:59;;;;;;;7.88;4.57;;;;;;;26.44;39.07;99696.16;5085285;28;20056;-70
2022/06/17 09:53:31;;;;;;;5.15;4.20;;;;;;;26.39;39.43;99703.16;5084915;28;20057;-69
2022/06/17 09:56:06;;;;;;;4.25;3.05;;;;;;;26.64;39.71;99709.34;5085072;28;20048;-69
2022/06/17 09:58:40;;;;;;;4.40;3.42;;;;;;;26.71;39.29;99713.03;5085107;28;20067;-69
2022/06/17 10:01:08;;;;;;;4.13;3.63;;;;;;;26.59;40.07;99709.00;5085187;28;20317;-69
2022/06/17 10:03:38;;;;;;;5.60;3.28;;;;;;;26.25;39.20;99668.59;5084930;28;20337;-69
2022/06/17 10:06:27;;;;;;;5.22;3.08;;;;;;;26.36;38.64;99696.22;5084406;28;20048;-69
2022/06/17 10:09:05;;;;;;;5.72;3.50;;;;;;;26.36;38.27;99701.63;5085093;28;20049;-69
2022/06/17 10:11:39;;;;;;;13.23;4.13;;;;;;;26.52;39.67;99706.97;5084802;28;20056;-68
2022/06/17 10:14:22;;;;;;;5.25;4.32;;;;;;;26.50;37.69;99706.31;5084425;28;20205;-70
2022/06/17 10:19:57;;;;;;;6.10;4.28;;;;;;;26.42;38.06;99708.22;5084864;28;20319;-69
2022/06/17 10:22:41;;;;;;;7.60;3.97;;;;;;;26.33;38.89;99717.44;5085009;28;20064;-69
2022/06/17 10:25:25;;;;;;;5.15;4.00;;;;;;;26.34;38.69;99716.44;5084612;28;20063;-69
2022/06/17 10:28:00;;;;;;;;;;;;;;;26.19;38.56;99709.03;5085179;28;20048;-69
2022/06/17 10:30:41;;;;;;;5.40;3.42;;;;;;;26.33;38.88;99714.72;5084882;28;19916;-69
2022/06/17 10:33:12;;;;;;;4.15;3.40;;;;;;;26.31;39.54;99709.47;5085196;28;20063;-69
2022/06/17 10:35:41;;;;;;;4.80;3.10;;;;;;;26.45;39.56;99707.88;5088331;28;20056;-69
2022/06/17 10:38:12;;;;;;;7.10;4.28;;;;;;;26.60;39.35;99703.41;5088435;28;20052;-69
2022/06/17 10:40:41;;;;;;;5.45;3.33;;;;;;;26.69;39.44;99706.91;5088115;28;20071;-70
2022/06/17 10:43:15;;;;;;;3.78;3.17;;;;;;;26.50;38.43;99698.16;5087924;28;20305;-69
2022/06/17 10:45:44;;;;;;;4.22;2.72;;;;;;;26.53;39.19;99705.97;5088524;28;20068;-70
2022/06/17 10:48:23;;;;;;;4.55;2.95;;;;;;;26.61;38.11;99696.09;5088196;28;20098;-69
2022/06/17 10:50:50;;;;;;;5.15;3.58;;;;;;;26.54;38.80;99706.81;5088479;28;20079;-69
2022/06/17 10:53:24;;;;;;;4.25;3.03;;;;;;;26.49;38.12;99699.19;5088312;28;20056;-69
2022/06/17 10:55:55;;;;;;;4.25;2.92;;;;;;;26.17;37.68;99661.31;5088074;28;20079;-70
2022/06/17 10:58:25;;;;;;;7.72;2.75;;;;;;;26.49;38.13;99693.75;5088313;28;20053;-69
2022/06/17 11:00:58;;;;;;;6.70;3.42;;;;;;;26.36;36.80;99690.78;5087794;28;20060;-69
2022/06/17 11:03:32;;;;;;;4.82;3.13;;;;;;;26.33;37.38;99693.84;5088069;28;20059;-69
2022/06/17 11:06:06;;;;;;;4.03;2.83;;;;;;;26.34;36.52;99694.69;5087588;28;20067;-69
2022/06/17 11:08:38;;;;;;;4.05;3.00;;;;;;;26.31;38.07;99692.31;5087670;28;20414;-70
2022/06/17 11:13:54;;;;;;;7.38;3.47;;;;;;;26.30;38.09;99698.78;5087703;28;20156;-69
2022/06/17 11:16:25;;;;;;;10.30;3.95;;;;;;;26.13;38.71;99662.69;5087764;28;20200;-70
2022/06/17 11:18:59;;;;;;;7.20;4.07;;;;;;;26.58;36.84;99702.72;5087720;28;20056;-69
2022/06/17 11:21:31;;;;;;;5.38;3.70;;;;;;;26.63;37.72;99684.03;5087607;28;20056;-69
2022/06/17 11:24:00;;;;;;;7.22;3.47;;;;;;;26.77;37.00;99698.72;5087489;28;20056;-69
2022/06/17 11:26:31;;;;;;;4.25;3.20;;;;;;;26.80;37.05;99701.91;5086900;28;20064;-70
2022/06/17 11:29:01;;;;;;;5.75;4.15;;;;;;;26.63;36.85;99702.19;5086756;28;20316;-69
2022/06/17 11:31:41;;;;;;;7.63;4.50;;;;;;;26.34;36.35;99652.06;5087428;28;20056;-70
2022/06/17 11:34:17;;;;;;;5.32;3.78;;;;;;;26.47;35.49;99693.09;5087569;28;20052;-70
2022/06/17 11:36:56;;;;;;;6.53;4.00;;;;;;;26.51;35.95;99696.28;5087354;28;20064;-70
2022/06/17 11:39:32;;;;;;;5.65;3.40;;;;;;;26.50;36.10;99694.59;5087405;28;20060;-70
2022/06/17 11:42:01;;;;;;;5.47;3.08;;;;;;;26.62;37.27;99692.34;5086979;28;20340;-70
2022/06/17 11:44:29;;;;;;;5.03;2.88;;;;;;;26.61;37.52;99675.19;5086681;28;20048;-70
2022/06/17 11:47:01;;;;;;;3.78;2.70;;;;;;;26.79;35.64;99694.78;5086661;28;20060;-69
2022/06/17 11:49:34;;;;;;;3.92;2.70;;;;;;;26.82;35.32;99696.28;5086952;28;20063;-70
2022/06/17 11:52:04;;;;;;;4.10;2.80;;;;;;;26.62;35.97;99705.94;5087152;28;20075;-70
2022/06/17 11:54:34;;;;;;;5.45;3.08;;;;;;;26.68;36.87;99697.91;5087059;28;20064;-70
2022/06/17 11:57:16;;;;;;;5.25;3.70;;;;;;;26.71;35.64;99700.28;5086996;28;20052;-70
2022/06/17 11:59:47;;;;;;;4.53;3.10;;;;;;;26.66;36.65;99696.41;5086878;28;20052;-70
2022/06/17 12:02:17;;;;;;;4.13;2.70;;;;;;;26.70;35.80;99693.16;5086990;28;20052;-70
2022/06/17 12:04:47;;;;;;;4.47;3.72;;;;;;;26.79;36.54;99691.22;5086553;28;20052;-70
2022/06/17 12:07:31;;;;;;;4.30;2.95;;;;;;;26.66;35.09;99680.09;5086498;28;20075;-69